sensor_id;sensor_type;location;lat;lon;timestamp;P1;durP1;ratioP1;P2;durP2;ratioP2
47349;SDS011;33088;51.982;5.872;2022-12-11T00:00:20;156.50;;;32.03;;
47349;SDS011;33088;51.982;5.872;2022-12-11T00:02:45;147.65;;;31.23;;
47349;SDS011;33088;51.982;5.872;2022-12-11T00:05:11;96.60;;;25.42;;
47349;SDS011;33088;51.982;5.872;2022-12-11T00:07:37;103.75;;;29.65;;
47349;SDS011;33088;51.982;5.872;2022-12-11T00:10:03;119.55;;;30.65;;
47349;SDS011;33088;51.982;5.872;2022-12-11T00:12:29;113.88;;;29.02;;
47349;SDS011;33088;51.982;5.872;2022-12-11T00:14:55;144.00;;;32.40;;
47349;SDS011;33088;51.982;5.872;2022-12-11T00:17:21;115.70;;;31.85;;
47349;SDS011;33088;51.982;5.872;2022-12-11T00:19:46;92.63;;;28.05;;
47349;SDS011;33088;51.982;5.872;2022-12-11T00:22:12;135.90;;;32.22;;
47349;SDS011;33088;51.982;5.872;2022-12-11T00:24:37;129.00;;;30.20;;
47349;SDS011;33088;51.982;5.872;2022-12-11T00:27:03;138.68;;;29.92;;
47349;SDS011;33088;51.982;5.872;2022-12-11T00:29:29;114.55;;;29.98;;
47349;SDS011;33088;51.982;5.872;2022-12-11T00:31:54;113.05;;;28.92;;
47349;SDS011;33088;51.982;5.872;2022-12-11T00:34:20;102.63;;;29.92;;
47349;SDS011;33088;51.982;5.872;2022-12-11T00:36:46;101.28;;;27.08;;
47349;SDS011;33088;51.982;5.872;2022-12-11T00:39:11;109.40;;;29.23;;
47349;SDS011;33088;51.982;5.872;2022-12-11T00:41:37;115.20;;;29.70;;
47349;SDS011;33088;51.982;5.872;2022-12-11T00:44:03;119.25;;;31.65;;
47349;SDS011;33088;51.982;5.872;2022-12-11T00:46:28;90.20;;;27.17;;
47349;SDS011;33088;51.982;5.872;2022-12-11T00:48:54;106.68;;;27.10;;
47349;SDS011;33088;51.982;5.872;2022-12-11T00:51:20;107.00;;;28.23;;
47349;SDS011;33088;51.982;5.872;2022-12-11T00:53:45;92.03;;;26.63;;
47349;SDS011;33088;51.982;5.872;2022-12-11T00:56:12;80.97;;;26.80;;
47349;SDS011;33088;51.982;5.872;2022-12-11T00:58:40;96.80;;;26.58;;
47349;SDS011;33088;51.982;5.872;2022-12-11T01:01:10;111.15;;;29.73;;
47349;SDS011;33088;51.982;5.872;2022-12-11T01:03:38;81.95;;;25.83;;
47349;SDS011;33088;51.982;5.872;2022-12-11T01:06:03;110.40;;;29.77;;
47349;SDS011;33088;51.982;5.872;2022-12-11T01:08:30;88.38;;;25.65;;
47349;SDS011;33088;51.982;5.872;2022-12-11T01:11:06;89.63;;;25.45;;
47349;SDS011;33088;51.982;5.872;2022-12-11T01:13:34;130.77;;;32.13;;
47349;SDS011;33088;51.982;5.872;2022-12-11T01:16:04;83.82;;;27.02;;
47349;SDS011;33088;51.982;5.872;2022-12-11T01:18:31;99.10;;;29.00;;
47349;SDS011;33088;51.982;5.872;2022-12-11T01:20:56;101.38;;;28.98;;
47349;SDS011;33088;51.982;5.872;2022-12-11T01:23:22;101.43;;;27.90;;
47349;SDS011;33088;51.982;5.872;2022-12-11T01:25:48;91.47;;;26.15;;
47349;SDS011;33088;51.982;5.872;2022-12-11T01:28:13;97.72;;;27.30;;
47349;SDS011;33088;51.982;5.872;2022-12-11T01:30:40;91.53;;;27.10;;
47349;SDS011;33088;51.982;5.872;2022-12-11T01:33:07;84.18;;;26.83;;
47349;SDS011;33088;51.982;5.872;2022-12-11T01:35:33;77.72;;;26.80;;
47349;SDS011;33088;51.982;5.872;2022-12-11T01:37:59;85.32;;;27.00;;
47349;SDS011;33088;51.982;5.872;2022-12-11T01:40:25;88.13;;;27.48;;
47349;SDS011;33088;51.982;5.872;2022-12-11T01:42:50;80.10;;;26.40;;
47349;SDS011;33088;51.982;5.872;2022-12-11T01:47:51;92.97;;;28.33;;
47349;SDS011;33088;51.982;5.872;2022-12-11T01:50:20;86.38;;;26.88;;
47349;SDS011;33088;51.982;5.872;2022-12-11T01:52:47;109.20;;;28.48;;
47349;SDS011;33088;51.982;5.872;2022-12-11T01:55:14;122.28;;;30.65;;
47349;SDS011;33088;51.982;5.872;2022-12-11T01:57:42;106.97;;;27.38;;
47349;SDS011;33088;51.982;5.872;2022-12-11T02:00:11;84.65;;;24.77;;
47349;SDS011;33088;51.982;5.872;2022-12-11T02:02:42;107.72;;;28.48;;
47349;SDS011;33088;51.982;5.872;2022-12-11T02:05:09;118.82;;;31.10;;
47349;SDS011;33088;51.982;5.872;2022-12-11T02:07:39;96.55;;;26.40;;
47349;SDS011;33088;51.982;5.872;2022-12-11T02:10:08;141.57;;;32.10;;
47349;SDS011;33088;51.982;5.872;2022-12-11T02:13:20;107.80;;;30.25;;
47349;SDS011;33088;51.982;5.872;2022-12-11T02:15:32;118.47;;;30.30;;
47349;SDS011;33088;51.982;5.872;2022-12-11T02:18:14;98.32;;;26.65;;
47349;SDS011;33088;51.982;5.872;2022-12-11T02:20:53;134.32;;;31.52;;
47349;SDS011;33088;51.982;5.872;2022-12-11T02:23:41;108.95;;;28.75;;
47349;SDS011;33088;51.982;5.872;2022-12-11T02:28:55;192.73;;;35.03;;
47349;SDS011;33088;51.982;5.872;2022-12-11T02:31:28;116.38;;;29.38;;
47349;SDS011;33088;51.982;5.872;2022-12-11T02:36:56;104.95;;;27.30;;
47349;SDS011;33088;51.982;5.872;2022-12-11T02:39:25;122.18;;;28.83;;
47349;SDS011;33088;51.982;5.872;2022-12-11T02:41:53;106.95;;;31.60;;
47349;SDS011;33088;51.982;5.872;2022-12-11T02:44:21;140.57;;;32.70;;
47349;SDS011;33088;51.982;5.872;2022-12-11T02:46:51;211.07;;;38.92;;
47349;SDS011;33088;51.982;5.872;2022-12-11T02:49:17;123.40;;;30.33;;
47349;SDS011;33088;51.982;5.872;2022-12-11T02:51:44;112.22;;;31.00;;
47349;SDS011;33088;51.982;5.872;2022-12-11T02:54:15;95.95;;;27.52;;
47349;SDS011;33088;51.982;5.872;2022-12-11T02:56:45;119.57;;;28.85;;
47349;SDS011;33088;51.982;5.872;2022-12-11T02:59:18;134.73;;;30.25;;
47349;SDS011;33088;51.982;5.872;2022-12-11T03:01:47;124.00;;;31.40;;
47349;SDS011;33088;51.982;5.872;2022-12-11T03:04:14;94.05;;;26.75;;
47349;SDS011;33088;51.982;5.872;2022-12-11T03:06:44;112.18;;;29.58;;
47349;SDS011;33088;51.982;5.872;2022-12-11T03:09:13;99.97;;;27.83;;
47349;SDS011;33088;51.982;5.872;2022-12-11T03:11:41;120.45;;;29.88;;
47349;SDS011;33088;51.982;5.872;2022-12-11T03:14:07;101.32;;;28.42;;
47349;SDS011;33088;51.982;5.872;2022-12-11T03:16:36;92.65;;;27.40;;
47349;SDS011;33088;51.982;5.872;2022-12-11T03:22:08;101.07;;;29.08;;
47349;SDS011;33088;51.982;5.872;2022-12-11T03:24:40;103.70;;;28.42;;
47349;SDS011;33088;51.982;5.872;2022-12-11T03:27:14;143.63;;;33.53;;
47349;SDS011;33088;51.982;5.872;2022-12-11T03:30:02;98.75;;;27.88;;
47349;SDS011;33088;51.982;5.872;2022-12-11T03:32:38;108.18;;;26.98;;
47349;SDS011;33088;51.982;5.872;2022-12-11T03:35:13;109.00;;;29.33;;
47349;SDS011;33088;51.982;5.872;2022-12-11T03:37:48;102.95;;;30.73;;
47349;SDS011;33088;51.982;5.872;2022-12-11T03:40:16;119.00;;;33.08;;
47349;SDS011;33088;51.982;5.872;2022-12-11T03:42:45;100.18;;;28.25;;
47349;SDS011;33088;51.982;5.872;2022-12-11T03:45:15;150.00;;;34.35;;
47349;SDS011;33088;51.982;5.872;2022-12-11T03:47:43;137.35;;;30.92;;
47349;SDS011;33088;51.982;5.872;2022-12-11T03:50:10;95.47;;;28.65;;
47349;SDS011;33088;51.982;5.872;2022-12-11T03:52:42;107.80;;;29.65;;
47349;SDS011;33088;51.982;5.872;2022-12-11T03:55:11;116.28;;;31.75;;
47349;SDS011;33088;51.982;5.872;2022-12-11T03:57:39;106.45;;;31.58;;
47349;SDS011;33088;51.982;5.872;2022-12-11T04:00:06;109.13;;;31.83;;
47349;SDS011;33088;51.982;5.872;2022-12-11T04:02:37;122.93;;;31.20;;
47349;SDS011;33088;51.982;5.872;2022-12-11T04:05:03;107.72;;;31.67;;
47349;SDS011;33088;51.982;5.872;2022-12-11T04:07:29;109.35;;;31.08;;
47349;SDS011;33088;51.982;5.872;2022-12-11T04:09:55;117.43;;;33.63;;
47349;SDS011;33088;51.982;5.872;2022-12-11T04:12:21;92.13;;;27.83;;
47349;SDS011;33088;51.982;5.872;2022-12-11T04:14:46;102.75;;;30.75;;
47349;SDS011;33088;51.982;5.872;2022-12-11T04:17:28;103.85;;;28.63;;
47349;SDS011;33088;51.982;5.872;2022-12-11T04:20:12;103.78;;;30.95;;
47349;SDS011;33088;51.982;5.872;2022-12-11T04:22:56;100.30;;;29.98;;
47349;SDS011;33088;51.982;5.872;2022-12-11T04:25:41;116.05;;;31.25;;
47349;SDS011;33088;51.982;5.872;2022-12-11T04:28:06;95.50;;;31.02;;
47349;SDS011;33088;51.982;5.872;2022-12-11T04:30:32;112.43;;;31.23;;
47349;SDS011;33088;51.982;5.872;2022-12-11T04:32:58;111.60;;;31.83;;
47349;SDS011;33088;51.982;5.872;2022-12-11T04:35:23;98.43;;;31.55;;
47349;SDS011;33088;51.982;5.872;2022-12-11T04:37:49;107.63;;;31.38;;
47349;SDS011;33088;51.982;5.872;2022-12-11T04:40:16;104.80;;;31.27;;
47349;SDS011;33088;51.982;5.872;2022-12-11T04:42:43;89.53;;;28.35;;
47349;SDS011;33088;51.982;5.872;2022-12-11T04:45:09;98.93;;;28.92;;
47349;SDS011;33088;51.982;5.872;2022-12-11T04:47:35;108.00;;;30.05;;
47349;SDS011;33088;51.982;5.872;2022-12-11T04:50:02;87.32;;;30.13;;
47349;SDS011;33088;51.982;5.872;2022-12-11T04:52:30;84.45;;;28.38;;
47349;SDS011;33088;51.982;5.872;2022-12-11T04:54:55;91.70;;;30.17;;
47349;SDS011;33088;51.982;5.872;2022-12-11T04:57:21;85.30;;;27.75;;
47349;SDS011;33088;51.982;5.872;2022-12-11T04:59:47;87.13;;;26.63;;
47349;SDS011;33088;51.982;5.872;2022-12-11T05:02:13;93.40;;;28.60;;
47349;SDS011;33088;51.982;5.872;2022-12-11T05:04:40;84.60;;;27.42;;
47349;SDS011;33088;51.982;5.872;2022-12-11T05:07:05;85.43;;;28.60;;
47349;SDS011;33088;51.982;5.872;2022-12-11T05:09:31;80.28;;;29.67;;
47349;SDS011;33088;51.982;5.872;2022-12-11T05:11:57;85.80;;;29.75;;
47349;SDS011;33088;51.982;5.872;2022-12-11T05:14:22;76.72;;;27.85;;
47349;SDS011;33088;51.982;5.872;2022-12-11T05:16:48;78.15;;;29.60;;
47349;SDS011;33088;51.982;5.872;2022-12-11T05:19:14;78.15;;;28.95;;
47349;SDS011;33088;51.982;5.872;2022-12-11T05:21:40;85.07;;;31.67;;
47349;SDS011;33088;51.982;5.872;2022-12-11T05:24:05;70.55;;;28.88;;
47349;SDS011;33088;51.982;5.872;2022-12-11T05:26:31;90.13;;;30.73;;
47349;SDS011;33088;51.982;5.872;2022-12-11T05:28:57;65.03;;;27.05;;
47349;SDS011;33088;51.982;5.872;2022-12-11T05:31:24;78.30;;;27.55;;
47349;SDS011;33088;51.982;5.872;2022-12-11T05:33:51;75.38;;;27.75;;
47349;SDS011;33088;51.982;5.872;2022-12-11T05:38:48;66.43;;;25.35;;
47349;SDS011;33088;51.982;5.872;2022-12-11T05:41:15;79.28;;;28.17;;
47349;SDS011;33088;51.982;5.872;2022-12-11T05:43:43;86.03;;;28.08;;
47349;SDS011;33088;51.982;5.872;2022-12-11T05:46:13;78.90;;;29.25;;
47349;SDS011;33088;51.982;5.872;2022-12-11T05:48:50;62.40;;;26.02;;
47349;SDS011;33088;51.982;5.872;2022-12-11T05:51:18;70.78;;;28.15;;
47349;SDS011;33088;51.982;5.872;2022-12-11T05:53:45;70.85;;;26.38;;
47349;SDS011;33088;51.982;5.872;2022-12-11T05:56:14;73.63;;;28.13;;
47349;SDS011;33088;51.982;5.872;2022-12-11T05:58:42;73.30;;;28.77;;
47349;SDS011;33088;51.982;5.872;2022-12-11T06:01:10;66.53;;;25.92;;
47349;SDS011;33088;51.982;5.872;2022-12-11T06:03:37;74.25;;;28.33;;
47349;SDS011;33088;51.982;5.872;2022-12-11T06:06:05;71.03;;;28.35;;
47349;SDS011;33088;51.982;5.872;2022-12-11T06:08:32;62.65;;;25.20;;
47349;SDS011;33088;51.982;5.872;2022-12-11T06:10:58;71.70;;;27.17;;
47349;SDS011;33088;51.982;5.872;2022-12-11T06:13:24;67.18;;;27.85;;
47349;SDS011;33088;51.982;5.872;2022-12-11T06:15:50;64.35;;;26.98;;
47349;SDS011;33088;51.982;5.872;2022-12-11T06:18:16;65.43;;;27.42;;
47349;SDS011;33088;51.982;5.872;2022-12-11T06:20:41;63.83;;;28.77;;
47349;SDS011;33088;51.982;5.872;2022-12-11T06:23:07;63.05;;;27.35;;
47349;SDS011;33088;51.982;5.872;2022-12-11T06:25:33;54.60;;;24.50;;
47349;SDS011;33088;51.982;5.872;2022-12-11T06:27:59;54.55;;;25.00;;
47349;SDS011;33088;51.982;5.872;2022-12-11T06:30:24;54.90;;;26.60;;
47349;SDS011;33088;51.982;5.872;2022-12-11T06:32:50;55.55;;;25.73;;
47349;SDS011;33088;51.982;5.872;2022-12-11T06:35:16;56.10;;;26.08;;
47349;SDS011;33088;51.982;5.872;2022-12-11T06:37:41;63.70;;;26.40;;
47349;SDS011;33088;51.982;5.872;2022-12-11T06:40:08;60.75;;;27.38;;
47349;SDS011;33088;51.982;5.872;2022-12-11T06:42:35;58.28;;;25.58;;
47349;SDS011;33088;51.982;5.872;2022-12-11T06:45:01;52.72;;;23.60;;
47349;SDS011;33088;51.982;5.872;2022-12-11T06:47:30;60.10;;;22.30;;
47349;SDS011;33088;51.982;5.872;2022-12-11T06:49:56;48.22;;;23.92;;
47349;SDS011;33088;51.982;5.872;2022-12-11T06:52:22;53.40;;;22.67;;
47349;SDS011;33088;51.982;5.872;2022-12-11T06:54:49;51.13;;;24.85;;
47349;SDS011;33088;51.982;5.872;2022-12-11T06:57:15;45.95;;;21.80;;
47349;SDS011;33088;51.982;5.872;2022-12-11T06:59:41;42.38;;;21.38;;
47349;SDS011;33088;51.982;5.872;2022-12-11T07:02:09;48.10;;;22.75;;
47349;SDS011;33088;51.982;5.872;2022-12-11T07:04:37;47.83;;;21.60;;
47349;SDS011;33088;51.982;5.872;2022-12-11T07:07:03;46.45;;;22.58;;
47349;SDS011;33088;51.982;5.872;2022-12-11T07:09:28;42.17;;;21.73;;
47349;SDS011;33088;51.982;5.872;2022-12-11T07:11:54;44.53;;;22.02;;
47349;SDS011;33088;51.982;5.872;2022-12-11T07:14:20;44.55;;;21.58;;
47349;SDS011;33088;51.982;5.872;2022-12-11T07:16:45;48.50;;;23.75;;
47349;SDS011;33088;51.982;5.872;2022-12-11T07:19:11;44.60;;;21.83;;
47349;SDS011;33088;51.982;5.872;2022-12-11T07:21:37;48.17;;;23.70;;
47349;SDS011;33088;51.982;5.872;2022-12-11T07:24:05;49.20;;;22.48;;
47349;SDS011;33088;51.982;5.872;2022-12-11T07:26:31;43.47;;;21.40;;
47349;SDS011;33088;51.982;5.872;2022-12-11T07:28:56;42.72;;;19.05;;
47349;SDS011;33088;51.982;5.872;2022-12-11T07:31:23;39.70;;;18.63;;
47349;SDS011;33088;51.982;5.872;2022-12-11T07:33:54;38.47;;;18.85;;
47349;SDS011;33088;51.982;5.872;2022-12-11T07:36:20;40.10;;;18.83;;
47349;SDS011;33088;51.982;5.872;2022-12-11T07:38:47;37.55;;;19.27;;
47349;SDS011;33088;51.982;5.872;2022-12-11T07:41:13;45.45;;;20.38;;
47349;SDS011;33088;51.982;5.872;2022-12-11T07:43:40;39.55;;;18.15;;
47349;SDS011;33088;51.982;5.872;2022-12-11T07:46:07;39.72;;;18.90;;
47349;SDS011;33088;51.982;5.872;2022-12-11T07:48:35;39.40;;;20.17;;
47349;SDS011;33088;51.982;5.872;2022-12-11T07:53:37;37.63;;;19.83;;
47349;SDS011;33088;51.982;5.872;2022-12-11T07:56:03;37.25;;;19.95;;
47349;SDS011;33088;51.982;5.872;2022-12-11T07:58:29;44.78;;;20.70;;
47349;SDS011;33088;51.982;5.872;2022-12-11T08:00:54;34.83;;;19.30;;
47349;SDS011;33088;51.982;5.872;2022-12-11T08:03:20;37.83;;;18.27;;
47349;SDS011;33088;51.982;5.872;2022-12-11T08:05:49;38.58;;;19.23;;
47349;SDS011;33088;51.982;5.872;2022-12-11T08:08:16;37.83;;;19.42;;
47349;SDS011;33088;51.982;5.872;2022-12-11T08:10:43;40.45;;;19.20;;
47349;SDS011;33088;51.982;5.872;2022-12-11T08:13:09;34.72;;;17.00;;
47349;SDS011;33088;51.982;5.872;2022-12-11T08:15:35;35.53;;;17.20;;
47349;SDS011;33088;51.982;5.872;2022-12-11T08:18:01;31.42;;;16.65;;
47349;SDS011;33088;51.982;5.872;2022-12-11T08:20:26;29.73;;;15.65;;
47349;SDS011;33088;51.982;5.872;2022-12-11T08:22:52;29.67;;;14.27;;
47349;SDS011;33088;51.982;5.872;2022-12-11T08:25:18;31.65;;;15.50;;
47349;SDS011;33088;51.982;5.872;2022-12-11T08:27:43;31.63;;;15.73;;
47349;SDS011;33088;51.982;5.872;2022-12-11T08:30:09;31.45;;;13.60;;
47349;SDS011;33088;51.982;5.872;2022-12-11T08:32:35;36.10;;;14.52;;
47349;SDS011;33088;51.982;5.872;2022-12-11T08:35:01;28.83;;;14.85;;
47349;SDS011;33088;51.982;5.872;2022-12-11T08:37:27;27.02;;;14.38;;
47349;SDS011;33088;51.982;5.872;2022-12-11T08:39:53;28.98;;;15.35;;
47349;SDS011;33088;51.982;5.872;2022-12-11T08:42:19;26.83;;;15.18;;
47349;SDS011;33088;51.982;5.872;2022-12-11T08:44:48;25.98;;;14.10;;
47349;SDS011;33088;51.982;5.872;2022-12-11T08:47:14;25.98;;;13.30;;
47349;SDS011;33088;51.982;5.872;2022-12-11T08:49:39;30.08;;;15.43;;
47349;SDS011;33088;51.982;5.872;2022-12-11T08:52:08;33.60;;;14.65;;
47349;SDS011;33088;51.982;5.872;2022-12-11T08:54:35;24.95;;;14.07;;
47349;SDS011;33088;51.982;5.872;2022-12-11T08:57:02;28.13;;;15.25;;
47349;SDS011;33088;51.982;5.872;2022-12-11T08:59:28;29.45;;;13.85;;
47349;SDS011;33088;51.982;5.872;2022-12-11T09:01:54;26.38;;;13.82;;
47349;SDS011;33088;51.982;5.872;2022-12-11T09:04:20;31.60;;;15.07;;
47349;SDS011;33088;51.982;5.872;2022-12-11T09:06:47;26.15;;;14.15;;
47349;SDS011;33088;51.982;5.872;2022-12-11T09:09:12;26.52;;;14.23;;
47349;SDS011;33088;51.982;5.872;2022-12-11T09:11:38;25.80;;;13.13;;
47349;SDS011;33088;51.982;5.872;2022-12-11T09:14:04;27.20;;;14.57;;
47349;SDS011;33088;51.982;5.872;2022-12-11T09:16:30;29.80;;;15.13;;
47349;SDS011;33088;51.982;5.872;2022-12-11T09:18:56;24.98;;;12.98;;
47349;SDS011;33088;51.982;5.872;2022-12-11T09:21:24;27.83;;;13.88;;
47349;SDS011;33088;51.982;5.872;2022-12-11T09:23:52;24.88;;;14.75;;
47349;SDS011;33088;51.982;5.872;2022-12-11T09:26:20;30.75;;;15.05;;
47349;SDS011;33088;51.982;5.872;2022-12-11T09:28:46;29.80;;;15.88;;
47349;SDS011;33088;51.982;5.872;2022-12-11T09:31:13;29.80;;;14.63;;
47349;SDS011;33088;51.982;5.872;2022-12-11T09:33:40;29.52;;;13.93;;
47349;SDS011;33088;51.982;5.872;2022-12-11T09:36:07;32.20;;;16.05;;
47349;SDS011;33088;51.982;5.872;2022-12-11T09:38:33;28.05;;;14.35;;
47349;SDS011;33088;51.982;5.872;2022-12-11T09:41:00;23.20;;;12.93;;
47349;SDS011;33088;51.982;5.872;2022-12-11T09:43:37;30.90;;;14.10;;
47349;SDS011;33088;51.982;5.872;2022-12-11T09:46:12;28.13;;;15.10;;
47349;SDS011;33088;51.982;5.872;2022-12-11T09:48:46;28.42;;;14.98;;
47349;SDS011;33088;51.982;5.872;2022-12-11T09:53:46;27.90;;;14.10;;
47349;SDS011;33088;51.982;5.872;2022-12-11T10:01:24;26.15;;;13.68;;
47349;SDS011;33088;51.982;5.872;2022-12-11T10:06:32;31.98;;;15.43;;
47349;SDS011;33088;51.982;5.872;2022-12-11T10:11:49;28.08;;;14.35;;
47349;SDS011;33088;51.982;5.872;2022-12-11T10:17:10;31.90;;;14.85;;
47349;SDS011;33088;51.982;5.872;2022-12-11T10:19:37;31.95;;;17.00;;
47349;SDS011;33088;51.982;5.872;2022-12-11T10:22:07;34.17;;;17.27;;
47349;SDS011;33088;51.982;5.872;2022-12-11T10:24:43;28.92;;;15.55;;
47349;SDS011;33088;51.982;5.872;2022-12-11T10:27:20;25.65;;;14.48;;
47349;SDS011;33088;51.982;5.872;2022-12-11T10:29:48;26.83;;;14.48;;
47349;SDS011;33088;51.982;5.872;2022-12-11T10:32:21;28.30;;;14.43;;
47349;SDS011;33088;51.982;5.872;2022-12-11T10:34:51;27.67;;;14.30;;
47349;SDS011;33088;51.982;5.872;2022-12-11T10:37:26;30.52;;;16.20;;
47349;SDS011;33088;51.982;5.872;2022-12-11T10:39:51;29.10;;;16.20;;
47349;SDS011;33088;51.982;5.872;2022-12-11T10:42:20;27.63;;;14.55;;
47349;SDS011;33088;51.982;5.872;2022-12-11T10:44:54;28.30;;;15.10;;
47349;SDS011;33088;51.982;5.872;2022-12-11T10:47:24;29.17;;;14.63;;
47349;SDS011;33088;51.982;5.872;2022-12-11T10:49:58;29.23;;;15.68;;
47349;SDS011;33088;51.982;5.872;2022-12-11T10:52:36;26.27;;;14.20;;
47349;SDS011;33088;51.982;5.872;2022-12-11T10:55:23;28.70;;;16.13;;
47349;SDS011;33088;51.982;5.872;2022-12-11T10:58:00;24.70;;;13.95;;
47349;SDS011;33088;51.982;5.872;2022-12-11T11:03:01;27.40;;;15.17;;
47349;SDS011;33088;51.982;5.872;2022-12-11T11:05:29;28.83;;;16.45;;
47349;SDS011;33088;51.982;5.872;2022-12-11T11:10:37;37.67;;;18.20;;
47349;SDS011;33088;51.982;5.872;2022-12-11T11:13:13;30.77;;;15.75;;
47349;SDS011;33088;51.982;5.872;2022-12-11T11:15:38;28.23;;;15.55;;
47349;SDS011;33088;51.982;5.872;2022-12-11T11:18:11;28.85;;;17.25;;
47349;SDS011;33088;51.982;5.872;2022-12-11T11:20:47;30.70;;;17.55;;
47349;SDS011;33088;51.982;5.872;2022-12-11T11:23:13;32.80;;;17.05;;
47349;SDS011;33088;51.982;5.872;2022-12-11T11:25:47;29.90;;;17.58;;
47349;SDS011;33088;51.982;5.872;2022-12-11T11:28:17;33.67;;;17.45;;
47349;SDS011;33088;51.982;5.872;2022-12-11T11:30:56;30.85;;;17.60;;
47349;SDS011;33088;51.982;5.872;2022-12-11T11:33:27;29.48;;;17.80;;
47349;SDS011;33088;51.982;5.872;2022-12-11T11:38:43;31.92;;;18.73;;
47349;SDS011;33088;51.982;5.872;2022-12-11T11:41:20;30.70;;;18.38;;
47349;SDS011;33088;51.982;5.872;2022-12-11T11:43:50;34.50;;;18.73;;
47349;SDS011;33088;51.982;5.872;2022-12-11T11:49:13;30.38;;;17.92;;
47349;SDS011;33088;51.982;5.872;2022-12-11T11:51:54;37.45;;;20.08;;
47349;SDS011;33088;51.982;5.872;2022-12-11T11:57:41;32.28;;;16.90;;
47349;SDS011;33088;51.982;5.872;2022-12-11T12:02:48;32.28;;;17.70;;
47349;SDS011;33088;51.982;5.872;2022-12-11T12:05:21;35.25;;;18.48;;
47349;SDS011;33088;51.982;5.872;2022-12-11T12:10:50;30.55;;;16.77;;
47349;SDS011;33088;51.982;5.872;2022-12-11T12:13:31;34.80;;;16.48;;
47349;SDS011;33088;51.982;5.872;2022-12-11T12:21:45;33.03;;;16.85;;
47349;SDS011;33088;51.982;5.872;2022-12-11T12:26:59;30.20;;;15.73;;
47349;SDS011;33088;51.982;5.872;2022-12-11T12:34:52;36.15;;;17.10;;
47349;SDS011;33088;51.982;5.872;2022-12-11T12:37:46;31.95;;;14.80;;
47349;SDS011;33088;51.982;5.872;2022-12-11T12:49:24;34.00;;;17.45;;
47349;SDS011;33088;51.982;5.872;2022-12-11T12:52:04;32.17;;;15.43;;
47349;SDS011;33088;51.982;5.872;2022-12-11T12:54:34;33.13;;;17.13;;
47349;SDS011;33088;51.982;5.872;2022-12-11T12:57:01;32.38;;;15.98;;
47349;SDS011;33088;51.982;5.872;2022-12-11T12:59:28;35.13;;;18.15;;
47349;SDS011;33088;51.982;5.872;2022-12-11T13:01:55;34.25;;;16.17;;
47349;SDS011;33088;51.982;5.872;2022-12-11T13:04:39;35.50;;;17.63;;
47349;SDS011;33088;51.982;5.872;2022-12-11T13:07:11;33.58;;;16.75;;
47349;SDS011;33088;51.982;5.872;2022-12-11T13:09:39;28.73;;;16.50;;
47349;SDS011;33088;51.982;5.872;2022-12-11T13:12:11;39.75;;;18.95;;
47349;SDS011;33088;51.982;5.872;2022-12-11T13:14:38;32.80;;;15.68;;
47349;SDS011;33088;51.982;5.872;2022-12-11T13:19:32;36.58;;;17.67;;
47349;SDS011;33088;51.982;5.872;2022-12-11T13:22:03;36.30;;;17.88;;
47349;SDS011;33088;51.982;5.872;2022-12-11T13:24:47;32.42;;;17.42;;
47349;SDS011;33088;51.982;5.872;2022-12-11T13:30:07;32.28;;;17.08;;
47349;SDS011;33088;51.982;5.872;2022-12-11T13:33:05;29.85;;;15.85;;
47349;SDS011;33088;51.982;5.872;2022-12-11T13:35:38;33.30;;;16.02;;
47349;SDS011;33088;51.982;5.872;2022-12-11T13:38:14;31.88;;;18.10;;
47349;SDS011;33088;51.982;5.872;2022-12-11T13:40:43;32.17;;;17.23;;
47349;SDS011;33088;51.982;5.872;2022-12-11T13:43:17;36.25;;;18.67;;
47349;SDS011;33088;51.982;5.872;2022-12-11T13:45:50;33.35;;;16.75;;
47349;SDS011;33088;51.982;5.872;2022-12-11T13:48:22;30.00;;;17.05;;
47349;SDS011;33088;51.982;5.872;2022-12-11T13:50:53;38.95;;;17.65;;
47349;SDS011;33088;51.982;5.872;2022-12-11T13:53:20;32.60;;;17.30;;
47349;SDS011;33088;51.982;5.872;2022-12-11T13:55:54;28.60;;;16.33;;
47349;SDS011;33088;51.982;5.872;2022-12-11T13:58:22;31.17;;;16.58;;
47349;SDS011;33088;51.982;5.872;2022-12-11T14:01:07;33.65;;;17.40;;
47349;SDS011;33088;51.982;5.872;2022-12-11T14:03:38;30.50;;;18.50;;
47349;SDS011;33088;51.982;5.872;2022-12-11T14:06:07;34.95;;;18.65;;
47349;SDS011;33088;51.982;5.872;2022-12-11T14:08:36;30.30;;;16.55;;
47349;SDS011;33088;51.982;5.872;2022-12-11T14:11:04;29.48;;;15.85;;
47349;SDS011;33088;51.982;5.872;2022-12-11T14:13:32;30.42;;;16.08;;
47349;SDS011;33088;51.982;5.872;2022-12-11T14:16:00;27.75;;;16.13;;
47349;SDS011;33088;51.982;5.872;2022-12-11T14:18:27;35.13;;;15.63;;
47349;SDS011;33088;51.982;5.872;2022-12-11T14:20:56;35.90;;;17.45;;
47349;SDS011;33088;51.982;5.872;2022-12-11T14:23:28;30.17;;;14.75;;
47349;SDS011;33088;51.982;5.872;2022-12-11T14:26:03;27.80;;;15.93;;
47349;SDS011;33088;51.982;5.872;2022-12-11T14:28:40;30.77;;;16.70;;
47349;SDS011;33088;51.982;5.872;2022-12-11T14:31:07;27.88;;;15.27;;
47349;SDS011;33088;51.982;5.872;2022-12-11T14:33:37;27.60;;;16.08;;
47349;SDS011;33088;51.982;5.872;2022-12-11T14:36:08;30.70;;;16.17;;
47349;SDS011;33088;51.982;5.872;2022-12-11T14:38:36;36.05;;;16.63;;
47349;SDS011;33088;51.982;5.872;2022-12-11T14:41:11;33.45;;;16.77;;
47349;SDS011;33088;51.982;5.872;2022-12-11T14:46:17;29.38;;;15.32;;
47349;SDS011;33088;51.982;5.872;2022-12-11T14:49:01;30.95;;;16.92;;
47349;SDS011;33088;51.982;5.872;2022-12-11T14:51:33;30.25;;;16.38;;
47349;SDS011;33088;51.982;5.872;2022-12-11T14:54:03;32.03;;;16.90;;
47349;SDS011;33088;51.982;5.872;2022-12-11T14:56:31;34.55;;;17.23;;
47349;SDS011;33088;51.982;5.872;2022-12-11T14:59:06;36.17;;;17.35;;
47349;SDS011;33088;51.982;5.872;2022-12-11T15:01:46;33.85;;;16.45;;
47349;SDS011;33088;51.982;5.872;2022-12-11T15:04:29;30.38;;;16.08;;
47349;SDS011;33088;51.982;5.872;2022-12-11T15:06:56;35.05;;;17.60;;
47349;SDS011;33088;51.982;5.872;2022-12-11T15:11:58;32.63;;;17.42;;
47349;SDS011;33088;51.982;5.872;2022-12-11T15:17:22;34.88;;;15.23;;
47349;SDS011;33088;51.982;5.872;2022-12-11T15:20:01;34.45;;;17.02;;
47349;SDS011;33088;51.982;5.872;2022-12-11T15:22:31;31.63;;;15.95;;
47349;SDS011;33088;51.982;5.872;2022-12-11T15:24:58;32.80;;;17.20;;
47349;SDS011;33088;51.982;5.872;2022-12-11T15:27:36;31.42;;;17.40;;
47349;SDS011;33088;51.982;5.872;2022-12-11T15:30:23;33.67;;;17.13;;
47349;SDS011;33088;51.982;5.872;2022-12-11T15:33:01;32.63;;;17.08;;
47349;SDS011;33088;51.982;5.872;2022-12-11T15:35:27;33.67;;;18.48;;
47349;SDS011;33088;51.982;5.872;2022-12-11T15:37:54;35.00;;;17.25;;
47349;SDS011;33088;51.982;5.872;2022-12-11T15:40:20;35.65;;;15.55;;
47349;SDS011;33088;51.982;5.872;2022-12-11T15:42:47;37.33;;;16.65;;
47349;SDS011;33088;51.982;5.872;2022-12-11T15:45:17;32.20;;;18.33;;
47349;SDS011;33088;51.982;5.872;2022-12-11T15:47:45;33.13;;;16.33;;
47349;SDS011;33088;51.982;5.872;2022-12-11T15:50:19;33.58;;;16.02;;
47349;SDS011;33088;51.982;5.872;2022-12-11T15:52:47;28.23;;;16.80;;
47349;SDS011;33088;51.982;5.872;2022-12-11T15:55:14;32.75;;;17.08;;
47349;SDS011;33088;51.982;5.872;2022-12-11T15:57:47;34.28;;;15.23;;